Time,TemperatureF,DewpointF,PressureIn,WindDirection,WindDirectionDegrees,WindSpeedMPH,WindSpeedGustMPH,Humidity,HourlyPrecipIn,Conditions,Clouds,dailyrainin,SoftwareType,DateUTC
2013-05-22 00:01:00,57.9,47.4,29.53,ESE,114,0.0,0.0,68,0.00,,---,0.00,VWS V13.01,2013-05-22 04:01:00,
2013-05-22 00:02:00,58.1,47.6,29.53,ESE,114,0.0,0.0,68,0.00,,---,0.00,VWS V13.01,2013-05-22 04:02:00,
2013-05-22 00:04:00,57.9,47.4,29.53,ESE,114,0.0,0.0,68,0.00,,---,0.00,VWS V13.01,2013-05-22 04:04:00,
2013-05-22 00:06:00,57.9,47.0,29.53,SE,129,3.4,4.5,67,0.00,,---,0.00,VWS V13.01,2013-05-22 04:06:00,
2013-05-22 00:11:00,57.9,45.8,29.53,SE,128,4.0,5.4,64,0.00,,---,0.00,VWS V13.01,2013-05-22 04:11:00,
2013-05-22 00:12:00,57.9,45.8,29.53,SE,135,5.4,7.2,64,0.00,,---,0.00,VWS V13.01,2013-05-22 04:12:00,
2013-05-22 00:18:00,57.9,45.0,29.50,ESE,122,0.0,0.0,62,0.00,,---,0.00,VWS V13.01,2013-05-22 04:18:00,
2013-05-22 00:24:00,57.9,44.1,29.50,SSE,153,0.0,0.0,60,0.00,,---,0.00,VWS V13.01,2013-05-22 04:24:00,
2013-05-22 00:30:00,57.9,43.7,29.50,ESE,104,0.0,0.0,59,0.00,,---,0.00,VWS V13.01,2013-05-22 04:30:00,
2013-05-22 00:36:00,57.9,43.7,29.50,SSE,150,4.7,6.3,59,0.00,,---,0.00,VWS V13.01,2013-05-22 04:36:00,
2013-05-22 00:41:00,57.9,44.1,29.50,SSE,155,0.0,0.0,60,0.00,,---,0.00,VWS V13.01,2013-05-22 04:41:00,
2013-05-22 00:46:00,57.7,44.4,29.53,SSE,147,0.0,0.0,61,0.00,,---,0.00,VWS V13.01,2013-05-22 04:46:00,
2013-05-22 00:51:00,57.7,44.0,29.53,SE,137,0.0,0.0,60,0.00,,---,0.00,VWS V13.01,2013-05-22 04:51:00,
2013-05-22 00:58:00,57.7,44.0,29.53,SE,136,0.0,0.0,60,0.00,,---,0.00,VWS V13.01,2013-05-22 04:58:00,
2013-05-22 01:04:00,57.7,44.0,29.53,SE,131,5.4,7.2,60,0.00,,---,0.00,VWS V13.01,2013-05-22 05:04:00,
2013-05-22 01:09:00,57.7,43.5,29.53,SE,130,3.4,4.5,59,0.00,,---,0.00,VWS V13.01,2013-05-22 05:09:00,
2013-05-22 01:15:00,57.7,42.6,29.50,ESE,122,0.0,0.0,57,0.00,,---,0.00,VWS V13.01,2013-05-22 05:15:00,
2013-05-22 01:21:00,57.7,42.2,29.50,SSW,211,4.7,6.3,56,0.00,,---,0.00,VWS V13.01,2013-05-22 05:21:00,
2013-05-22 01:28:00,57.7,41.7,29.50,ESE,116,5.4,7.2,55,0.00,,---,0.00,VWS V13.01,2013-05-22 05:28:00,
2013-05-22 01:34:00,57.9,40.9,29.50,SE,130,0.0,0.0,53,0.00,,---,0.00,VWS V13.01,2013-05-22 05:34:00,
2013-05-22 01:40:00,57.9,39.9,29.50,South,172,0.0,0.0,51,0.00,,---,0.00,VWS V13.01,2013-05-22 05:40:00,
2013-05-22 01:46:00,57.9,39.9,29.53,SSE,168,0.0,0.0,51,0.00,,---,0.00,VWS V13.01,2013-05-22 05:46:00,
2013-05-22 01:51:00,57.9,39.9,29.53,SE,127,4.0,5.4,51,0.00,,---,0.00,VWS V13.01,2013-05-22 05:51:00,
2013-05-22 01:56:00,57.9,39.4,29.53,SSE,149,0.0,0.0,50,0.00,,---,0.00,VWS V13.01,2013-05-22 05:56:00,
2013-05-22 02:02:00,57.9,39.4,29.53,SE,131,0.0,0.0,50,0.00,,---,0.00,VWS V13.01,2013-05-22 06:02:00,
2013-05-22 02:07:00,57.9,38.9,29.53,SE,142,0.0,0.0,49,0.00,,---,0.00,VWS V13.01,2013-05-22 06:07:00,
2013-05-22 02:13:00,57.7,38.7,29.53,SE,146,0.0,0.0,49,0.00,,---,0.00,VWS V13.01,2013-05-22 06:13:00,
2013-05-22 02:19:00,57.6,38.6,29.53,SE,130,0.0,0.0,49,0.00,,---,0.00,VWS V13.01,2013-05-22 06:19:00,
2013-05-22 02:25:00,57.6,41.1,29.53,SSE,167,0.0,0.0,54,0.00,,---,0.00,VWS V13.01,2013-05-22 06:25:00,
2013-05-22 02:30:00,57.4,43.2,29.53,SE,138,3.4,4.5,59,0.00,,---,0.00,VWS V13.01,2013-05-22 06:30:00,
2013-05-22 02:35:00,57.2,43.5,29.53,SSE,147,0.0,0.0,60,0.00,,---,0.00,VWS V13.01,2013-05-22 06:35:00,
2013-05-22 02:41:00,57.2,44.7,29.53,ESE,110,0.0,0.0,63,0.00,,---,0.00,VWS V13.01,2013-05-22 06:41:00,
2013-05-22 02:46:00,57.2,44.7,29.53,ESE,121,0.0,0.0,63,0.00,,---,0.00,VWS V13.01,2013-05-22 06:46:00,
2013-05-22 02:51:00,57.2,44.7,29.53,SE,124,4.0,5.4,63,0.00,,---,0.00,VWS V13.01,2013-05-22 06:51:00,
2013-05-22 02:56:00,57.2,44.3,29.53,SSE,155,0.0,0.0,62,0.00,,---,0.00,VWS V13.01,2013-05-22 06:56:00,
2013-05-22 03:01:00,57.2,44.3,29.50,East,101,4.0,5.4,62,0.00,,---,0.00,VWS V13.01,2013-05-22 07:01:00,
2013-05-22 03:07:00,57.2,44.3,29.50,ESE,119,0.0,0.0,62,0.00,,---,0.00,VWS V13.01,2013-05-22 07:07:00,
2013-05-22 03:14:00,57.2,43.9,29.50,SE,130,0.0,0.0,61,0.00,,---,0.00,VWS V13.01,2013-05-22 07:14:00,
2013-05-22 03:20:00,57.2,43.5,29.50,SSE,154,0.0,0.0,60,0.00,,---,0.00,VWS V13.01,2013-05-22 07:20:00,
2013-05-22 03:25:00,57.2,42.6,29.50,SE,126,3.4,4.5,58,0.00,,---,0.00,VWS V13.01,2013-05-22 07:25:00,
2013-05-22 03:30:00,57.2,42.6,29.50,SE,126,0.0,0.0,58,0.00,,---,0.00,VWS V13.01,2013-05-22 07:30:00,
2013-05-22 03:35:00,57.2,42.6,29.50,East,99,0.0,0.0,58,0.00,,---,0.00,VWS V13.01,2013-05-22 07:35:00,
2013-05-22 03:41:00,57.2,42.1,29.50,East,99,0.0,0.0,57,0.00,,---,0.00,VWS V13.01,2013-05-22 07:41:00,
2013-05-22 03:46:00,57.2,42.1,29.53,East,99,0.0,0.0,57,0.00,,---,0.00,VWS V13.01,2013-05-22 07:46:00,
2013-05-22 03:52:00,57.2,42.1,29.53,ESE,116,0.0,0.0,57,0.00,,---,0.00,VWS V13.01,2013-05-22 07:52:00,
2013-05-22 03:57:00,57.2,42.1,29.53,ESE,121,0.0,0.0,57,0.00,,---,0.00,VWS V13.01,2013-05-22 07:57:00,
2013-05-22 04:03:00,57.2,41.7,29.53,SE,127,0.0,0.0,56,0.00,,---,0.00,VWS V13.01,2013-05-22 08:03:00,
2013-05-22 04:09:00,57.2,41.7,29.53,SE,129,3.4,4.5,56,0.00,,---,0.00,VWS V13.01,2013-05-22 08:09:00,
2013-05-22 04:14:00,57.2,41.2,29.50,SE,133,0.0,0.0,55,0.00,,---,0.00,VWS V13.01,2013-05-22 08:14:00,
2013-05-22 04:19:00,57.2,41.2,29.50,SE,139,0.0,0.0,55,0.00,,---,0.00,VWS V13.01,2013-05-22 08:19:00,
2013-05-22 04:26:00,57.2,41.2,29.50,ESE,112,0.0,0.0,55,0.00,,---,0.00,VWS V13.01,2013-05-22 08:26:00,
2013-05-22 04:31:00,57.0,42.0,29.50,ESE,122,4.0,5.4,57,0.00,,---,0.00,VWS V13.01,2013-05-22 08:31:00,
2013-05-22 04:36:00,57.0,42.0,29.50,ESE,119,5.4,7.2,57,0.00,,---,0.00,VWS V13.01,2013-05-22 08:36:00,
2013-05-22 04:41:00,56.8,42.7,29.50,ESE,120,0.0,0.0,59,0.00,,---,0.00,VWS V13.01,2013-05-22 08:41:00,
2013-05-22 04:47:00,56.8,43.1,29.53,SSE,163,0.0,0.0,60,0.00,,---,0.00,VWS V13.01,2013-05-22 08:47:00,
2013-05-22 04:54:00,56.8,44.8,29.53,SSE,150,0.0,0.0,64,0.00,,---,0.00,VWS V13.01,2013-05-22 08:54:00,
2013-05-22 04:59:00,56.7,45.0,29.53,SE,142,0.0,0.0,65,0.00,,---,0.00,VWS V13.01,2013-05-22 08:59:00,
2013-05-22 05:05:00,56.7,46.2,29.50,SE,132,0.0,0.0,68,0.00,,---,0.00,VWS V13.01,2013-05-22 09:05:00,
2013-05-22 05:10:00,56.7,46.2,29.50,SSE,159,3.4,4.5,68,0.00,,---,0.00,VWS V13.01,2013-05-22 09:10:00,
2013-05-22 05:16:00,56.5,46.5,29.53,SSE,159,0.0,0.0,69,0.00,,---,0.00,VWS V13.01,2013-05-22 09:16:00,
2013-05-22 05:21:00,56.3,47.0,29.53,ESE,122,0.0,0.0,71,0.00,,---,0.00,VWS V13.01,2013-05-22 09:21:00,
2013-05-22 05:26:00,56.3,47.0,29.53,SE,124,0.0,0.0,71,0.00,,---,0.00,VWS V13.01,2013-05-22 09:26:00,
2013-05-22 05:32:00,56.3,47.8,29.53,SE,124,0.0,0.0,73,0.00,,---,0.00,VWS V13.01,2013-05-22 09:32:00,
2013-05-22 05:38:00,56.3,48.1,29.53,SE,124,0.0,0.0,74,0.00,,---,0.00,VWS V13.01,2013-05-22 09:38:00,
2013-05-22 05:44:00,56.3,48.5,29.53,ESE,110,0.0,0.0,75,0.00,,---,0.00,VWS V13.01,2013-05-22 09:44:00,
2013-05-22 05:49:00,56.3,48.8,29.53,ESE,110,0.0,0.0,76,0.00,,---,0.00,VWS V13.01,2013-05-22 09:49:00,
2013-05-22 05:54:00,56.3,49.2,29.53,ESE,121,0.0,0.0,77,0.00,,---,0.00,VWS V13.01,2013-05-22 09:54:00,
2013-05-22 06:00:00,56.3,49.5,29.53,ESE,116,0.0,0.0,78,0.00,,---,0.00,VWS V13.01,2013-05-22 10:00:00,
2013-05-22 06:06:00,56.5,49.7,29.53,SE,131,0.0,0.0,78,0.00,,---,0.00,VWS V13.01,2013-05-22 10:06:00,
2013-05-22 06:11:00,56.5,50.1,29.53,ESE,116,0.0,0.0,79,0.00,,---,0.00,VWS V13.01,2013-05-22 10:11:00,
2013-05-22 06:17:00,56.7,50.6,29.53,ESE,116,0.0,0.0,80,0.00,,---,0.00,VWS V13.01,2013-05-22 10:17:00,
2013-05-22 06:22:00,56.8,50.7,29.53,ESE,116,0.0,0.0,80,0.00,,---,0.00,VWS V13.01,2013-05-22 10:22:00,
2013-05-22 06:28:00,56.8,50.7,29.53,ESE,116,0.0,0.0,80,0.00,,---,0.00,VWS V13.01,2013-05-22 10:28:00,
2013-05-22 06:33:00,57.0,50.9,29.53,ESE,116,0.0,0.0,80,0.00,,---,0.00,VWS V13.01,2013-05-22 10:33:00,
2013-05-22 06:38:00,57.0,50.9,29.53,ESE,116,0.0,0.0,80,0.00,,---,0.00,VWS V13.01,2013-05-22 10:38:00,
2013-05-22 06:44:00,57.2,51.1,29.53,ESE,116,0.0,0.0,80,0.00,,---,0.00,VWS V13.01,2013-05-22 10:44:00,
2013-05-22 06:50:00,57.2,51.1,29.56,ESE,116,0.0,0.0,80,0.00,,---,0.00,VWS V13.01,2013-05-22 10:50:00,
2013-05-22 06:55:00,57.4,51.3,29.56,ESE,116,0.0,0.0,80,0.00,,---,0.00,VWS V13.01,2013-05-22 10:55:00,
2013-05-22 07:02:00,57.4,51.3,29.56,East,96,0.0,0.0,80,0.00,,---,0.00,VWS V13.01,2013-05-22 11:02:00,
2013-05-22 07:08:00,57.6,51.5,29.56,East,96,0.0,0.0,80,0.00,,---,0.00,VWS V13.01,2013-05-22 11:08:00,
2013-05-22 07:14:00,57.6,51.5,29.56,East,87,0.0,0.0,80,0.00,,---,0.00,VWS V13.01,2013-05-22 11:14:00,
2013-05-22 07:19:00,57.9,51.8,29.56,East,87,0.0,0.0,80,0.00,,---,0.00,VWS V13.01,2013-05-22 11:19:00,
2013-05-22 07:24:00,57.9,51.5,29.56,East,86,0.0,0.0,79,0.00,,---,0.00,VWS V13.01,2013-05-22 11:24:00,
2013-05-22 07:29:00,58.1,51.6,29.56,East,87,0.0,0.0,79,0.00,,---,0.00,VWS V13.01,2013-05-22 11:29:00,
2013-05-22 07:34:00,57.9,51.1,29.56,East,86,0.0,0.0,78,0.00,,---,0.00,VWS V13.01,2013-05-22 11:34:00,
2013-05-22 07:40:00,57.9,51.1,29.56,East,87,0.0,0.0,78,0.00,,---,0.00,VWS V13.01,2013-05-22 11:40:00,
2013-05-22 07:45:00,57.9,50.4,29.56,SE,131,0.0,0.0,76,0.00,,---,0.00,VWS V13.01,2013-05-22 11:45:00,
2013-05-22 07:52:00,58.3,49.7,29.56,ESE,110,0.0,0.0,73,0.00,,---,0.00,VWS V13.01,2013-05-22 11:52:00,
2013-05-22 07:58:00,58.8,49.8,29.56,ESE,109,0.0,0.0,72,0.00,,---,0.00,VWS V13.01,2013-05-22 11:58:00,
2013-05-22 08:03:00,58.8,47.1,29.56,SE,140,0.0,0.0,65,0.00,,---,0.00,VWS V13.01,2013-05-22 12:03:00,
2013-05-22 08:09:00,59.0,44.7,29.56,SE,125,0.0,0.0,59,0.00,,---,0.00,VWS V13.01,2013-05-22 12:09:00,
2013-05-22 08:14:00,59.2,43.5,29.56,SE,125,0.0,0.0,56,0.00,,---,0.00,VWS V13.01,2013-05-22 12:14:00,
2013-05-22 08:19:00,59.4,41.2,29.56,SE,125,0.0,0.0,51,0.00,,---,0.00,VWS V13.01,2013-05-22 12:19:00,
2013-05-22 08:24:00,59.9,39.6,29.56,East,83,0.0,0.0,47,0.00,,---,0.00,VWS V13.01,2013-05-22 12:24:00,
2013-05-22 08:30:00,60.3,38.8,29.56,ESE,115,0.0,0.0,45,0.00,,---,0.00,VWS V13.01,2013-05-22 12:30:00,
2013-05-22 08:35:00,60.1,37.5,29.56,ESE,121,3.4,4.5,43,0.00,,---,0.00,VWS V13.01,2013-05-22 12:35:00,
2013-05-22 08:41:00,60.1,35.1,29.56,SE,140,3.4,4.5,39,0.00,,---,0.00,VWS V13.01,2013-05-22 12:41:00,
2013-05-22 08:46:00,60.8,35.1,29.56,ESE,113,3.4,4.5,38,0.00,,---,0.00,VWS V13.01,2013-05-22 12:46:00,
2013-05-22 08:52:00,61.7,35.2,29.56,ESE,113,0.0,0.0,37,0.00,,---,0.00,VWS V13.01,2013-05-22 12:52:00,
2013-05-22 08:57:00,61.9,34.7,29.56,East,87,0.0,0.0,36,0.00,,---,0.00,VWS V13.01,2013-05-22 12:57:00,
2013-05-22 09:03:00,62.1,34.8,29.56,East,85,0.0,0.0,36,0.00,,---,0.00,VWS V13.01,2013-05-22 13:03:00,
2013-05-22 09:09:00,63.0,33.4,29.56,ESE,114,0.0,0.0,33,0.00,,---,0.00,VWS V13.01,2013-05-22 13:09:00,
2013-05-22 09:14:00,63.3,32.2,29.56,ESE,123,0.0,0.0,31,0.00,,---,0.00,VWS V13.01,2013-05-22 13:14:00,
2013-05-22 09:20:00,63.9,33.5,29.56,ESE,102,0.0,0.0,32,0.00,,---,0.00,VWS V13.01,2013-05-22 13:20:00,
2013-05-22 09:25:00,64.4,29.7,29.56,SE,124,0.0,0.0,27,0.00,,---,0.00,VWS V13.01,2013-05-22 13:25:00,
2013-05-22 09:30:00,64.6,29.9,29.56,ESE,116,0.0,0.0,27,0.00,,---,0.00,VWS V13.01,2013-05-22 13:30:00,
2013-05-22 09:36:00,64.2,29.6,29.56,ESE,116,0.0,0.0,27,0.00,,---,0.00,VWS V13.01,2013-05-22 13:36:00,
2013-05-22 09:41:00,63.3,29.7,29.56,ESE,116,0.0,0.0,28,0.00,,---,0.00,VWS V13.01,2013-05-22 13:41:00,
2013-05-22 09:46:00,62.6,32.3,29.56,ESE,114,0.0,0.0,32,0.00,,---,0.00,VWS V13.01,2013-05-22 13:46:00,
2013-05-22 09:52:00,62.6,32.3,29.56,ESE,114,0.0,0.0,32,0.00,,---,0.00,VWS V13.01,2013-05-22 13:52:00,
2013-05-22 09:57:00,62.6,31.6,29.56,ESE,114,0.0,0.0,31,0.00,,---,0.00,VWS V13.01,2013-05-22 13:57:00,
2013-05-22 10:04:00,63.0,30.2,29.56,ESE,115,0.0,0.0,29,0.00,,---,0.00,VWS V13.01,2013-05-22 14:04:00,
2013-05-22 10:10:00,61.9,30.9,29.56,South,174,4.0,5.4,31,0.00,,---,0.00,VWS V13.01,2013-05-22 14:10:00,
2013-05-22 10:15:00,62.4,33.0,29.56,South,174,0.0,0.0,33,0.00,,---,0.00,VWS V13.01,2013-05-22 14:15:00,
2013-05-22 10:20:00,61.9,33.2,29.56,East,91,0.0,0.0,34,0.00,,---,0.00,VWS V13.01,2013-05-22 14:20:00,
2013-05-22 10:26:00,62.2,33.5,29.56,East,91,0.0,0.0,34,0.00,,---,0.00,VWS V13.01,2013-05-22 14:26:00,
2013-05-22 10:31:00,62.1,31.1,29.56,SSE,150,0.0,0.0,31,0.00,,---,0.00,VWS V13.01,2013-05-22 14:31:00,
2013-05-22 10:37:00,62.4,32.2,29.56,SSE,165,0.0,0.0,32,0.00,,---,0.00,VWS V13.01,2013-05-22 14:37:00,
2013-05-22 10:43:00,63.1,31.2,29.56,SSE,149,0.0,0.0,30,0.00,,---,0.00,VWS V13.01,2013-05-22 14:43:00,
2013-05-22 10:50:00,64.8,30.0,29.56,SE,137,0.0,0.0,27,0.00,,---,0.00,VWS V13.01,2013-05-22 14:50:00,
2013-05-22 10:55:00,64.8,29.1,29.56,SSE,155,0.0,0.0,26,0.00,,---,0.00,VWS V13.01,2013-05-22 14:55:00,
2013-05-22 11:00:00,65.5,28.8,29.56,ESE,118,0.0,0.0,25,0.00,,---,0.00,VWS V13.01,2013-05-22 15:00:00,
2013-05-22 11:05:00,64.0,27.5,29.56,SSW,193,4.0,5.4,25,0.00,,---,0.00,VWS V13.01,2013-05-22 15:05:00,
2013-05-22 11:11:00,63.9,28.3,29.56,NW,308,0.0,0.0,26,0.00,,---,0.00,VWS V13.01,2013-05-22 15:11:00,
2013-05-22 11:16:00,64.0,28.5,29.56,NW,308,0.0,0.0,26,0.00,,---,0.00,VWS V13.01,2013-05-22 15:16:00,
2013-05-22 11:22:00,63.9,29.3,29.56,South,181,0.0,0.0,27,0.00,,---,0.00,VWS V13.01,2013-05-22 15:22:00,
2013-05-22 11:27:00,63.9,28.3,29.56,SSW,212,0.0,0.0,26,0.00,,---,0.00,VWS V13.01,2013-05-22 15:27:00,
2013-05-22 11:34:00,64.0,28.5,29.56,SE,143,0.0,0.0,26,0.00,,---,0.00,VWS V13.01,2013-05-22 15:34:00,
2013-05-22 11:39:00,63.1,27.7,29.56,South,172,0.0,0.0,26,0.00,,---,0.00,VWS V13.01,2013-05-22 15:39:00,
2013-05-22 11:45:00,64.2,29.6,29.56,WSW,241,0.0,0.0,27,0.00,,---,0.00,VWS V13.01,2013-05-22 15:45:00,
2013-05-22 11:51:00,63.7,29.1,29.56,SSE,168,0.0,0.0,27,0.00,,---,0.00,VWS V13.01,2013-05-22 15:51:00,
2013-05-22 11:57:00,63.9,28.3,29.56,SE,142,0.0,0.0,26,0.00,,---,0.00,VWS V13.01,2013-05-22 15:57:00,
2013-05-22 12:02:00,65.1,28.5,29.53,SE,128,0.0,0.0,25,0.00,,---,0.00,VWS V13.01,2013-05-22 16:02:00,
2013-05-22 12:07:00,65.8,29.1,29.53,ESE,123,0.0,0.0,25,0.00,,---,0.00,VWS V13.01,2013-05-22 16:07:00,
2013-05-22 12:13:00,64.9,28.3,29.56,East,93,0.0,0.0,25,0.00,,---,0.00,VWS V13.01,2013-05-22 16:13:00,
2013-05-22 12:20:00,64.4,29.7,29.56,SE,137,0.0,0.0,27,0.00,,---,0.00,VWS V13.01,2013-05-22 16:20:00,
2013-05-22 12:26:00,65.1,29.4,29.56,ESE,122,0.0,0.0,26,0.00,,---,0.00,VWS V13.01,2013-05-22 16:26:00,
2013-05-22 12:32:00,67.3,29.3,29.56,SE,130,3.4,4.5,24,0.00,,---,0.00,VWS V13.01,2013-05-22 16:32:00,
2013-05-22 12:38:00,68.5,28.2,29.56,SE,125,5.4,7.2,22,0.00,,---,0.00,VWS V13.01,2013-05-22 16:38:00,
2013-05-22 12:43:00,69.4,29.0,29.56,SSE,150,0.0,0.0,22,0.00,,---,0.00,VWS V13.01,2013-05-22 16:43:00,
2013-05-22 12:50:00,68.4,28.1,29.56,ESE,115,6.0,8.1,22,0.00,,---,0.00,VWS V13.01,2013-05-22 16:50:00,
2013-05-22 12:55:00,68.0,28.9,29.56,ESE,123,0.0,0.0,23,0.00,,---,0.00,VWS V13.01,2013-05-22 16:55:00,
2013-05-22 13:02:00,68.4,28.1,29.56,ESE,123,0.0,0.0,22,0.00,,---,0.00,VWS V13.01,2013-05-22 17:02:00,
2013-05-22 13:07:00,68.0,27.8,29.56,East,93,0.0,0.0,22,0.00,,---,0.00,VWS V13.01,2013-05-22 17:07:00,
2013-05-22 13:14:00,67.5,28.4,29.56,East,93,0.0,0.0,23,0.00,,---,0.00,VWS V13.01,2013-05-22 17:14:00,
2013-05-22 13:19:00,67.1,29.1,29.56,ESE,112,0.0,0.0,24,0.00,,---,0.00,VWS V13.01,2013-05-22 17:19:00,
2013-05-22 13:26:00,66.7,28.8,29.56,South,170,0.0,0.0,24,0.00,,---,0.00,VWS V13.01,2013-05-22 17:26:00,
2013-05-22 13:32:00,67.1,28.1,29.53,SSE,167,5.4,7.2,23,0.00,,---,0.00,VWS V13.01,2013-05-22 17:32:00,
2013-05-22 13:38:00,68.5,28.2,29.53,SW,217,0.0,0.0,22,0.00,,---,0.00,VWS V13.01,2013-05-22 17:38:00,
2013-05-22 13:43:00,71.1,26.8,29.53,SE,130,0.0,0.0,19,0.00,,---,0.00,VWS V13.01,2013-05-22 17:43:00,
2013-05-22 13:49:00,67.5,27.3,29.53,South,170,5.4,7.2,22,0.00,,---,0.00,VWS V13.01,2013-05-22 17:49:00,
2013-05-22 13:56:00,68.5,28.2,29.53,South,183,6.0,8.1,22,0.00,,---,0.00,VWS V13.01,2013-05-22 17:56:00,
2013-05-22 14:02:00,71.4,27.0,29.53,South,169,0.0,0.0,19,0.00,,---,0.00,VWS V13.01,2013-05-22 18:02:00,
2013-05-22 14:08:00,70.5,26.3,29.53,SSE,160,7.4,9.8,19,0.00,,---,0.00,VWS V13.01,2013-05-22 18:08:00,
2013-05-22 14:14:00,71.2,26.9,29.53,SE,133,0.0,0.0,19,0.00,,---,0.00,VWS V13.01,2013-05-22 18:14:00,
2013-05-22 14:19:00,70.3,26.2,29.53,SSE,153,6.0,8.1,19,0.00,,---,0.00,VWS V13.01,2013-05-22 18:19:00,
2013-05-22 14:26:00,70.7,30.0,29.53,SSW,203,4.7,6.3,22,0.00,,---,0.00,VWS V13.01,2013-05-22 18:26:00,
2013-05-22 14:32:00,70.2,29.6,29.50,SE,133,0.0,0.0,22,0.00,,---,0.00,VWS V13.01,2013-05-22 18:32:00,
2013-05-22 14:37:00,70.7,26.5,29.50,SSW,213,4.0,5.4,19,0.00,,---,0.00,VWS V13.01,2013-05-22 18:37:00,
2013-05-22 14:43:00,72.3,27.8,29.50,SSE,168,4.0,5.4,19,0.00,,---,0.00,VWS V13.01,2013-05-22 18:43:00,
2013-05-22 14:48:00,77.7,26.4,29.50,ESE,114,0.0,0.0,15,0.00,,---,0.00,VWS V13.01,2013-05-22 18:48:00,
2013-05-22 14:54:00,74.3,25.2,29.50,SE,143,5.4,7.2,16,0.00,,---,0.00,VWS V13.01,2013-05-22 18:54:00,
2013-05-22 14:59:00,73.4,24.5,29.50,SE,128,0.0,0.0,16,0.00,,---,0.00,VWS V13.01,2013-05-22 18:59:00,
2013-05-22 15:04:00,69.8,25.7,29.50,SSE,153,8.1,10.7,19,0.00,,---,0.00,VWS V13.01,2013-05-22 19:04:00,
2013-05-22 15:10:00,72.7,28.1,29.50,SE,143,0.0,0.0,19,0.00,,---,0.00,VWS V13.01,2013-05-22 19:10:00,
2013-05-22 15:15:00,73.0,28.4,29.50,South,185,8.1,10.7,19,0.00,,---,0.00,VWS V13.01,2013-05-22 19:15:00,
2013-05-22 15:22:00,71.8,27.3,29.50,SSE,151,5.4,7.2,19,0.00,,---,0.00,VWS V13.01,2013-05-22 19:22:00,
2013-05-22 15:27:00,73.4,27.4,29.50,ESE,114,0.0,0.0,18,0.00,,---,0.00,VWS V13.01,2013-05-22 19:27:00,
2013-05-22 15:32:00,71.2,26.9,29.50,ESE,117,4.7,6.3,19,0.00,,---,0.00,VWS V13.01,2013-05-22 19:32:00,
2013-05-22 15:37:00,70.5,26.3,29.50,SE,141,4.7,6.3,19,0.00,,---,0.00,VWS V13.01,2013-05-22 19:37:00,
2013-05-22 15:43:00,70.5,29.9,29.50,SE,146,5.4,7.2,22,0.00,,---,0.00,VWS V13.01,2013-05-22 19:43:00,
2013-05-22 15:49:00,70.5,29.9,29.50,ESE,123,4.0,5.4,22,0.00,,---,0.00,VWS V13.01,2013-05-22 19:49:00,
2013-05-22 15:55:00,70.0,29.4,29.50,SSE,153,4.0,5.4,22,0.00,,---,0.00,VWS V13.01,2013-05-22 19:55:00,
2013-05-22 16:00:00,70.3,29.7,29.50,SE,145,0.0,0.0,22,0.00,,---,0.00,VWS V13.01,2013-05-22 20:00:00,
2013-05-22 16:06:00,71.2,30.5,29.50,SE,136,0.0,0.0,22,0.00,,---,0.00,VWS V13.01,2013-05-22 20:06:00,
2013-05-22 16:12:00,71.1,30.3,29.50,ESE,109,0.0,0.0,22,0.00,,---,0.00,VWS V13.01,2013-05-22 20:12:00,
2013-05-22 16:17:00,71.4,30.6,29.50,SSE,153,4.0,5.4,22,0.00,,---,0.00,VWS V13.01,2013-05-22 20:17:00,
2013-05-22 16:23:00,74.5,28.2,29.50,SE,139,0.0,0.0,18,0.00,,---,0.00,VWS V13.01,2013-05-22 20:23:00,
2013-05-22 16:29:00,71.8,27.3,29.50,SSE,151,4.0,5.4,19,0.00,,---,0.00,VWS V13.01,2013-05-22 20:29:00,
2013-05-22 16:34:00,72.3,30.2,29.50,SSE,160,0.0,0.0,21,0.00,,---,0.00,VWS V13.01,2013-05-22 20:34:00,
2013-05-22 16:40:00,71.4,30.6,29.50,ESE,118,0.0,0.0,22,0.00,,---,0.00,VWS V13.01,2013-05-22 20:40:00,
2013-05-22 16:46:00,69.3,29.9,29.50,South,188,0.0,0.0,23,0.00,,---,0.00,VWS V13.01,2013-05-22 20:46:00,
2013-05-22 16:51:00,69.6,30.2,29.50,SE,134,3.4,4.5,23,0.00,,---,0.00,VWS V13.01,2013-05-22 20:51:00,
2013-05-22 16:56:00,69.6,30.2,29.50,SE,129,0.0,0.0,23,0.00,,---,0.00,VWS V13.01,2013-05-22 20:56:00,
2013-05-22 17:02:00,69.3,29.9,29.50,South,177,0.0,0.0,23,0.00,,---,0.00,VWS V13.01,2013-05-22 21:02:00,
2013-05-22 17:08:00,68.9,29.6,29.50,SE,138,8.1,10.7,23,0.00,,---,0.00,VWS V13.01,2013-05-22 21:08:00,
2013-05-22 17:14:00,68.4,29.1,29.47,SSE,148,3.4,4.5,23,0.00,,---,0.00,VWS V13.01,2013-05-22 21:14:00,
2013-05-22 17:19:00,68.4,30.2,29.47,ESE,122,0.0,0.0,24,0.00,,---,0.00,VWS V13.01,2013-05-22 21:19:00,
2013-05-22 17:26:00,68.4,31.2,29.47,SE,131,0.0,0.0,25,0.00,,---,0.00,VWS V13.01,2013-05-22 21:26:00,
2013-05-22 17:31:00,68.2,30.0,29.47,SE,133,5.4,7.2,24,0.00,,---,0.00,VWS V13.01,2013-05-22 21:31:00,
2013-05-22 17:36:00,67.8,31.7,29.47,SE,127,0.0,0.0,26,0.00,,---,0.00,VWS V13.01,2013-05-22 21:36:00,
2013-05-22 17:41:00,67.3,31.2,29.47,SSE,149,0.0,0.0,26,0.00,,---,0.00,VWS V13.01,2013-05-22 21:41:00,
2013-05-22 17:47:00,67.3,32.2,29.47,ESE,118,3.4,4.5,27,0.00,,---,0.00,VWS V13.01,2013-05-22 21:47:00,
2013-05-22 17:53:00,66.9,31.9,29.47,SE,132,0.0,0.0,27,0.00,,---,0.00,VWS V13.01,2013-05-22 21:53:00,
2013-05-22 18:00:00,66.7,33.5,29.47,ESE,109,0.0,0.0,29,0.00,,---,0.00,VWS V13.01,2013-05-22 22:00:00,
2013-05-22 18:05:00,66.0,34.5,29.47,ESE,109,0.0,0.0,31,0.00,,---,0.00,VWS V13.01,2013-05-22 22:05:00,
2013-05-22 18:10:00,65.5,35.6,29.47,SE,129,0.0,0.0,33,0.00,,---,0.00,VWS V13.01,2013-05-22 22:10:00,
2013-05-22 18:16:00,64.9,35.9,29.44,ESE,122,0.0,0.0,34,0.00,,---,0.00,VWS V13.01,2013-05-22 22:16:00,
2013-05-22 18:21:00,65.1,36.8,29.44,ESE,123,0.0,0.0,35,0.00,,---,0.00,VWS V13.01,2013-05-22 22:21:00,
2013-05-22 18:27:00,66.0,36.1,29.44,ENE,78,3.4,4.5,33,0.00,,---,0.00,VWS V13.01,2013-05-22 22:27:00,
2013-05-22 18:33:00,66.4,34.0,29.44,SE,125,0.0,0.0,30,0.00,,---,0.00,VWS V13.01,2013-05-22 22:33:00,
2013-05-22 18:39:00,66.4,33.2,29.44,SE,131,4.7,6.3,29,0.00,,---,0.00,VWS V13.01,2013-05-22 22:39:00,
2013-05-22 18:44:00,65.3,35.5,29.44,ESE,114,6.0,8.1,33,0.00,,---,0.00,VWS V13.01,2013-05-22 22:44:00,
2013-05-22 18:49:00,64.9,35.9,29.44,ESE,118,0.0,0.0,34,0.00,,---,0.00,VWS V13.01,2013-05-22 22:49:00,
2013-05-22 18:56:00,64.2,35.3,29.44,SE,130,4.0,5.4,34,0.00,,---,0.00,VWS V13.01,2013-05-22 22:56:00,
2013-05-22 19:01:00,63.9,35.7,29.44,ESE,122,4.7,6.3,35,0.00,,---,0.00,VWS V13.01,2013-05-22 23:01:00,
2013-05-22 19:07:00,63.9,36.4,29.44,SE,135,0.0,0.0,36,0.00,,---,0.00,VWS V13.01,2013-05-22 23:07:00,
2013-05-22 19:12:00,63.7,36.2,29.44,SE,134,0.0,0.0,36,0.00,,---,0.00,VWS V13.01,2013-05-22 23:12:00,
2013-05-22 19:18:00,63.3,37.3,29.47,SE,135,0.0,0.0,38,0.00,,---,0.00,VWS V13.01,2013-05-22 23:18:00,
2013-05-22 19:23:00,62.8,40.6,29.47,SE,126,0.0,0.0,44,0.00,,---,0.00,VWS V13.01,2013-05-22 23:23:00,
2013-05-22 19:29:00,62.2,44.9,29.47,South,169,0.0,0.0,53,0.04,,---,0.04,VWS V13.01,2013-05-22 23:29:00,
2013-05-22 19:36:00,61.9,48.7,29.47,ESE,112,0.0,0.0,62,0.04,,---,0.04,VWS V13.01,2013-05-22 23:36:00,
2013-05-22 19:41:00,61.7,49.4,29.47,ESE,112,0.0,0.0,64,0.04,,---,0.04,VWS V13.01,2013-05-22 23:41:00,
2013-05-22 19:46:00,61.9,51.6,29.47,SE,140,0.0,0.0,69,0.04,,---,0.04,VWS V13.01,2013-05-22 23:46:00,
2013-05-22 19:52:00,61.7,51.8,29.47,SE,140,0.0,0.0,70,0.04,,---,0.04,VWS V13.01,2013-05-22 23:52:00,
2013-05-22 19:57:00,61.7,52.6,29.47,SE,136,0.0,0.0,72,0.04,,---,0.04,VWS V13.01,2013-05-22 23:57:00,
2013-05-22 20:04:00,61.9,54.2,29.47,SSE,152,3.4,4.5,76,0.04,,---,0.04,VWS V13.01,2013-05-23 00:04:00,
2013-05-22 20:09:00,61.7,54.4,29.47,SSE,159,0.0,0.0,77,0.04,,---,0.04,VWS V13.01,2013-05-23 00:09:00,
2013-05-22 20:14:00,61.7,55.1,29.47,SSE,159,0.0,0.0,79,0.08,,---,0.08,VWS V13.01,2013-05-23 00:14:00,
2013-05-22 20:20:00,61.7,55.5,29.47,SE,143,0.0,0.0,80,0.08,,---,0.08,VWS V13.01,2013-05-23 00:20:00,
2013-05-22 20:26:00,61.7,55.5,29.47,SE,144,0.0,0.0,80,0.04,,---,0.08,VWS V13.01,2013-05-23 00:26:00,
2013-05-22 20:31:00,61.7,55.8,29.47,SE,131,0.0,0.0,81,0.04,,---,0.08,VWS V13.01,2013-05-23 00:31:00,
2013-05-22 20:37:00,61.5,56.0,29.47,SSE,157,0.0,0.0,82,0.04,,---,0.08,VWS V13.01,2013-05-23 00:37:00,
2013-05-22 20:42:00,61.3,55.8,29.47,ESE,122,4.0,5.4,82,0.04,,---,0.08,VWS V13.01,2013-05-23 00:42:00,
2013-05-22 20:47:00,61.7,56.5,29.44,SSE,152,0.0,0.0,83,0.04,,---,0.08,VWS V13.01,2013-05-23 00:47:00,
2013-05-22 20:53:00,61.5,56.7,29.44,SE,137,0.0,0.0,84,0.04,,---,0.08,VWS V13.01,2013-05-23 00:53:00,
2013-05-22 20:59:00,61.5,57.0,29.44,SE,140,0.0,0.0,85,0.04,,---,0.08,VWS V13.01,2013-05-23 00:59:00,
2013-05-22 21:04:00,61.9,57.3,29.44,SE,133,4.0,5.4,85,0.04,,---,0.08,VWS V13.01,2013-05-23 01:04:00,
2013-05-22 21:09:00,61.9,57.7,29.44,SE,133,3.4,4.5,86,0.04,,---,0.08,VWS V13.01,2013-05-23 01:09:00,
2013-05-22 21:15:00,62.1,58.2,29.44,SSE,155,0.0,0.0,87,0.00,,---,0.08,VWS V13.01,2013-05-23 01:15:00,
2013-05-22 21:20:00,62.1,58.5,29.44,SSW,195,3.4,4.5,88,0.00,,---,0.08,VWS V13.01,2013-05-23 01:20:00,
2013-05-22 21:26:00,61.9,58.3,29.44,SSE,156,0.0,0.0,88,0.00,,---,0.08,VWS V13.01,2013-05-23 01:26:00,
2013-05-22 21:32:00,62.1,58.8,29.44,SE,144,0.0,0.0,89,0.00,,---,0.08,VWS V13.01,2013-05-23 01:32:00,
2013-05-22 21:38:00,62.1,58.8,29.44,SSE,152,0.0,0.0,89,0.00,,---,0.08,VWS V13.01,2013-05-23 01:38:00,
2013-05-22 21:43:00,62.1,58.8,29.44,SSE,152,0.0,0.0,89,0.00,,---,0.08,VWS V13.01,2013-05-23 01:43:00,
2013-05-22 21:48:00,61.9,58.9,29.44,SSE,149,0.0,0.0,90,0.00,,---,0.08,VWS V13.01,2013-05-23 01:48:00,
2013-05-22 21:54:00,61.9,58.9,29.44,ESE,116,0.0,0.0,90,0.00,,---,0.08,VWS V13.01,2013-05-23 01:54:00,
2013-05-22 21:59:00,61.9,58.9,29.44,SE,138,0.0,0.0,90,0.00,,---,0.08,VWS V13.01,2013-05-23 01:59:00,
2013-05-22 22:05:00,61.9,58.9,29.44,NE,37,0.0,0.0,90,0.00,,---,0.08,VWS V13.01,2013-05-23 02:05:00,
2013-05-22 22:10:00,61.7,58.7,29.44,SSW,200,0.0,0.0,90,0.00,,---,0.08,VWS V13.01,2013-05-23 02:10:00,
2013-05-22 22:16:00,61.7,58.7,29.41,ESE,119,0.0,0.0,90,0.00,,---,0.08,VWS V13.01,2013-05-23 02:16:00,
2013-05-22 22:21:00,61.5,58.6,29.41,SSE,167,0.0,0.0,90,0.00,,---,0.08,VWS V13.01,2013-05-23 02:21:00,
2013-05-22 22:27:00,61.5,58.9,29.41,SSE,165,0.0,0.0,91,0.00,,---,0.08,VWS V13.01,2013-05-23 02:27:00,
2013-05-22 22:33:00,61.7,59.0,29.41,SE,133,0.0,0.0,91,0.00,,---,0.08,VWS V13.01,2013-05-23 02:33:00,
2013-05-22 22:38:00,61.7,59.0,29.41,East,90,0.0,0.0,91,0.00,,---,0.08,VWS V13.01,2013-05-23 02:38:00,
2013-05-22 22:43:00,61.5,58.9,29.41,ESE,112,0.0,0.0,91,0.00,,---,0.08,VWS V13.01,2013-05-23 02:43:00,
2013-05-22 22:48:00,61.5,58.9,29.38,SE,131,0.0,0.0,91,0.00,,---,0.08,VWS V13.01,2013-05-23 02:48:00,
2013-05-22 22:54:00,61.7,59.4,29.38,SE,130,0.0,0.0,92,0.00,,---,0.08,VWS V13.01,2013-05-23 02:54:00,
2013-05-22 23:00:00,61.7,59.4,29.38,ESE,108,0.0,0.0,92,0.00,,---,0.08,VWS V13.01,2013-05-23 03:00:00,
2013-05-22 23:06:00,61.7,59.4,29.38,SE,128,0.0,0.0,92,0.00,,---,0.08,VWS V13.01,2013-05-23 03:06:00,
2013-05-22 23:11:00,61.7,59.4,29.38,SE,146,6.0,8.1,92,0.00,,---,0.08,VWS V13.01,2013-05-23 03:11:00,
2013-05-22 23:16:00,61.7,59.7,29.38,SE,126,0.0,0.0,93,0.00,,---,0.08,VWS V13.01,2013-05-23 03:16:00,
2013-05-22 23:21:00,61.7,59.7,29.38,East,85,0.0,0.0,93,0.00,,---,0.08,VWS V13.01,2013-05-23 03:21:00,
2013-05-22 23:27:00,61.7,59.7,29.38,South,169,0.0,0.0,93,0.00,,---,0.08,VWS V13.01,2013-05-23 03:27:00,
2013-05-22 23:33:00,61.9,60.1,29.35,SSE,152,4.0,5.4,94,0.00,,---,0.08,VWS V13.01,2013-05-23 03:33:00,
2013-05-22 23:40:00,61.9,60.1,29.35,SE,146,0.0,0.0,94,0.00,,---,0.08,VWS V13.01,2013-05-23 03:40:00,
2013-05-22 23:46:00,61.7,60.3,29.35,South,173,0.0,0.0,95,0.00,,---,0.08,VWS V13.01,2013-05-23 03:46:00,
2013-05-22 23:52:00,61.9,60.4,29.35,SSE,159,4.0,5.4,95,0.00,,---,0.08,VWS V13.01,2013-05-23 03:52:00,
2013-05-22 23:57:00,61.9,60.4,29.35,SSW,197,4.0,5.4,95,0.00,,---,0.08,VWS V13.01,2013-05-23 03:57:00,